Time;durP1;ratioP1;P1;durP2;ratioP2;P2;SDS_P1;SDS_P2;PMS_P1;PMS_P2;Temp;Humidity;BMP_temperature;BMP_pressure;BME280_temperature;BME280_humidity;BME280_pressure;Samples;Min_cycle;Max_cycle;Signal;HPM_P1;HPM_P2
2022/09/18 00:02:22;;;;;;;5.30;1.30;;;9.40;99.90;;;;;;5032034;28;20201;-76
2022/09/18 00:04:47;;;;;;;3.00;1.10;;;9.40;99.90;;;;;;5014169;28;20192;-76
2022/09/18 00:07:13;;;;;;;5.40;1.00;;;9.50;99.90;;;;;;5032047;28;20211;-76
2022/09/18 00:09:39;;;;;;;5.90;1.00;;;9.50;99.90;;;;;;5030258;28;20190;-76
2022/09/18 00:12:04;;;;;;;5.43;1.27;;;9.50;99.90;;;;;;5031325;28;20224;-76
2022/09/18 00:14:30;;;;;;;5.87;1.10;;;9.50;99.90;;;;;;5031714;28;20712;-75
2022/09/18 00:16:55;;;;;;;6.67;1.27;;;9.50;99.90;;;;;;5031682;28;20193;-76
2022/09/18 00:19:21;;;;;;;8.90;1.10;;;9.50;99.90;;;;;;5031562;28;20189;-76
2022/09/18 00:21:50;;;;;;;6.33;1.20;;;9.60;99.90;;;;;;5029949;28;20193;-76
2022/09/18 00:24:16;;;;;;;4.10;1.27;;;9.60;99.90;;;;;;5031748;28;20657;-75
2022/09/18 00:26:43;;;;;;;2.23;0.90;;;9.60;99.90;;;;;;5031673;28;20437;-76
2022/09/18 00:29:10;;;;;;;2.60;1.33;;;9.60;99.90;;;;;;5032302;28;20543;-75
2022/09/18 00:31:36;;;;;;;4.30;0.60;;;9.60;99.90;;;;;;5030984;28;20522;-75
2022/09/18 00:34:06;;;;;;;4.13;0.90;;;9.60;99.90;;;;;;5030999;28;20499;-75
2022/09/18 00:36:32;;;;;;;2.17;0.97;;;9.60;99.90;;;;;;5029810;28;20427;-75
2022/09/18 00:38:58;;;;;;;5.60;1.00;;;9.50;99.90;;;;;;5029664;28;20956;-75
2022/09/18 00:41:44;;;;;;;5.40;1.20;;;9.60;99.90;;;;;;5031223;28;20438;-76
2022/09/18 00:44:28;;;;;;;9.33;1.57;;;9.60;99.90;;;;;;5030934;28;20475;-76
2022/09/18 00:46:55;;;;;;;6.50;1.20;;;9.60;99.90;;;;;;5031557;28;20516;-75
2022/09/18 00:49:25;;;;;;;6.03;1.47;;;9.50;99.90;;;;;;5031316;28;20938;-75
2022/09/18 00:51:54;;;;;;;1.27;0.73;;;9.60;99.90;;;;;;5031201;28;20838;-75
2022/09/18 00:54:46;;;;;;;5.73;1.00;;;9.60;99.90;;;;;;5031318;28;20451;-75
2022/09/18 00:57:16;;;;;;;6.93;2.70;;;9.60;99.90;;;;;;5031433;28;20424;-75
2022/09/18 00:59:45;;;;;;;3.70;1.03;;;9.70;99.90;;;;;;5031133;28;20418;-75
2022/09/18 01:02:11;;;;;;;4.23;0.97;;;9.60;99.90;;;;;;5031107;28;20446;-75
2022/09/18 01:04:37;;;;;;;3.97;1.10;;;9.60;99.90;;;;;;5031168;28;20426;-76
2022/09/18 01:07:13;;;;;;;4.90;1.17;;;9.60;99.90;;;;;;5031184;28;20521;-76
2022/09/18 01:10:17;;;;;;;2.43;1.00;;;9.60;99.90;;;;;;5031398;28;20562;-76
2022/09/18 01:12:59;;;;;;;3.70;1.10;;;9.60;99.90;;;;;;4999010;28;20480;-76
2022/09/18 01:15:36;;;;;;;3.73;1.43;;;9.60;99.90;;;;;;5029822;28;20427;-76
2022/09/18 01:18:23;;;;;;;1.97;0.90;;;9.50;99.90;;;;;;5031137;28;20908;-76
2022/09/18 01:21:16;;;;;;;4.50;1.30;;;9.60;99.90;;;;;;5029530;28;20435;-76
2022/09/18 01:24:09;;;;;;;5.57;1.10;;;9.60;99.90;;;;;;5028855;28;20492;-76
2022/09/18 01:26:55;;;;;;;3.00;1.13;;;9.60;99.90;;;;;;5030889;28;20418;-76
2022/09/18 01:30:03;;;;;;;2.50;1.23;;;9.60;99.90;;;;;;5030810;28;20445;-76
2022/09/18 01:32:44;;;;;;;1.93;0.93;;;9.60;99.90;;;;;;5021482;28;20490;-75
2022/09/18 01:35:26;;;;;;;3.67;1.37;;;9.60;99.90;;;;;;5029046;28;20428;-75
2022/09/18 01:38:01;;;;;;;4.60;0.90;;;9.70;99.90;;;;;;5030195;28;20454;-75
2022/09/18 01:41:01;;;;;;;8.33;1.00;;;9.60;99.90;;;;;;5028347;28;20423;-76
2022/09/18 01:43:29;;;;;;;10.33;1.13;;;9.60;99.90;;;;;;5030083;28;20438;-76
2022/09/18 01:45:58;;;;;;;1.90;0.83;;;9.70;99.90;;;;;;5029887;28;20514;-76
2022/09/18 01:48:31;;;;;;;3.93;0.90;;;9.80;99.90;;;;;;5029805;28;20424;-75
2022/09/18 01:51:06;;;;;;;2.10;0.70;;;9.70;99.90;;;;;;5029724;28;20926;-76
2022/09/18 01:53:57;;;;;;;2.80;0.80;;;9.70;99.90;;;;;;5029572;28;20436;-75
2022/09/18 01:56:41;;;;;;;3.47;0.90;;;9.60;99.90;;;;;;5029761;28;20428;-76
2022/09/18 01:59:12;;;;;;;4.73;0.73;;;9.60;99.90;;;;;;5029561;28;20411;-76
2022/09/18 02:01:41;;;;;;;7.23;1.37;;;9.60;99.90;;;;;;5028274;28;20442;-76
2022/09/18 02:04:13;;;;;;;1.97;0.80;;;9.60;99.90;;;;;;5012557;28;20438;-76
2022/09/18 02:06:50;;;;;;;5.80;1.00;;;9.60;99.90;;;;;;5029782;28;20453;-75
2022/09/18 02:09:16;;;;;;;7.87;1.30;;;9.60;99.90;;;;;;5029835;28;20515;-75
2022/09/18 02:11:47;;;;;;;3.80;1.20;;;9.50;99.90;;;;;;5028012;28;20950;-76
2022/09/18 02:14:22;;;;;;;3.63;1.00;;;9.50;99.90;;;;;;5029554;28;20202;-75
2022/09/18 02:16:51;;;;;;;2.30;0.70;;;9.40;99.90;;;;;;5027729;28;20944;-76
2022/09/18 02:19:29;;;;;;;5.60;1.60;;;9.50;99.90;;;;;;5027623;28;20447;-75
2022/09/18 02:21:58;;;;;;;3.03;0.87;;;9.50;99.90;;;;;;5029105;28;20476;-76
2022/09/18 02:24:27;;;;;;;1.90;1.10;;;9.50;99.90;;;;;;5027589;28;20415;-75
2022/09/18 02:26:54;;;;;;;4.90;0.90;;;9.50;99.90;;;;;;5027518;28;20813;-75
2022/09/18 02:29:23;;;;;;;6.30;0.90;;;9.50;99.90;;;;;;5028974;28;20486;-75
2022/09/18 02:31:49;;;;;;;13.80;1.83;;;9.40;99.90;;;;;;5028693;28;20470;-75
2022/09/18 02:34:17;;;;;;;2.07;0.97;;;9.50;99.90;;;;;;5027525;28;20429;-75
2022/09/18 02:36:49;;;;;;;3.60;1.10;;;9.40;99.90;;;;;;5029005;28;20415;-76
2022/09/18 02:39:36;;;;;;;4.50;1.00;;;9.50;99.90;;;;;;5028813;28;20418;-76
2022/09/18 02:42:19;;;;;;;7.73;1.27;;;9.50;99.90;;;;;;5028748;28;20450;-76
2022/09/18 02:44:53;;;;;;;2.40;0.87;;;9.50;99.90;;;;;;5029175;28;20827;-75
2022/09/18 02:47:31;;;;;;;3.50;1.00;;;9.60;99.90;;;;;;5029733;28;20420;-75
2022/09/18 02:50:24;;;;;;;1.77;0.73;;;9.50;99.90;;;;;;5028370;28;20416;-75
2022/09/18 02:52:56;;;;;;;3.73;1.10;;;9.50;99.90;;;;;;5027047;28;20901;-75
2022/09/18 02:55:55;;;;;;;4.97;1.00;;;9.50;99.90;;;;;;5028603;28;20509;-75
2022/09/18 02:58:38;;;;;;;5.13;1.10;;;9.50;99.90;;;;;;5028489;28;20420;-75
2022/09/18 03:01:05;;;;;;;7.07;0.80;;;9.50;99.90;;;;;;5028463;28;20421;-75
2022/09/18 03:03:32;;;;;;;3.80;1.07;;;9.50;99.90;;;;;;5010357;28;20541;-75
2022/09/18 03:05:57;;;;;;;5.07;1.07;;;9.40;99.90;;;;;;5027137;28;20435;-75
2022/09/18 03:08:26;;;;;;;4.10;1.20;;;9.40;99.90;;;;;;5010587;28;20436;-75
2022/09/18 03:10:53;;;;;;;4.40;1.10;;;9.40;99.90;;;;;;5027008;28;20317;-75
2022/09/18 03:13:18;;;;;;;4.00;1.17;;;9.30;99.90;;;;;;5028225;28;20520;-75
2022/09/18 03:15:44;;;;;;;6.67;0.93;;;9.30;99.90;;;;;;5028508;28;20419;-75
2022/09/18 03:18:10;;;;;;;3.33;1.00;;;9.30;99.90;;;;;;5028435;28;20227;-76
2022/09/18 03:20:35;;;;;;;6.70;1.43;;;9.40;99.90;;;;;;5028405;28;20186;-75
2022/09/18 03:23:04;;;;;;;7.30;0.93;;;9.40;99.90;;;;;;5026821;28;20247;-75
2022/09/18 03:25:29;;;;;;;5.03;1.40;;;9.30;99.90;;;;;;5028415;28;20212;-76
2022/09/18 03:27:55;;;;;;;4.43;1.00;;;9.30;99.90;;;;;;5010496;28;20508;-75
2022/09/18 03:30:21;;;;;;;2.60;1.00;;;9.20;99.90;;;;;;5028200;28;20217;-75
2022/09/18 03:32:49;;;;;;;7.00;0.90;;;9.20;99.90;;;;;;5028357;28;20212;-75
2022/09/18 03:35:15;;;;;;;4.87;1.30;;;9.20;99.90;;;;;;5026718;28;20526;-75
2022/09/18 03:37:40;;;;;;;4.70;1.37;;;9.20;99.90;;;;;;5028202;28;20516;-75
2022/09/18 03:40:07;;;;;;;2.80;0.97;;;9.20;99.90;;;;;;5026579;28;20194;-75
2022/09/18 03:42:33;;;;;;;2.60;1.17;;;9.20;99.90;;;;;;5028089;28;20255;-75
2022/09/18 03:44:58;;;;;;;7.10;1.40;;;9.20;99.90;;;;;;5028070;28;20811;-75
2022/09/18 03:47:25;;;;;;;2.70;1.10;;;9.20;99.90;;;;;;5026705;28;20440;-75
2022/09/18 03:49:51;;;;;;;4.50;1.27;;;9.20;99.90;;;;;;5028122;28;20208;-75
2022/09/18 03:52:17;;;;;;;5.80;1.40;;;9.20;99.90;;;;;;5026673;28;20439;-75
2022/09/18 03:54:42;;;;;;;8.13;1.50;;;9.20;99.90;;;;;;5028912;28;20184;-75
2022/09/18 03:57:08;;;;;;;7.43;1.20;;;9.10;99.90;;;;;;5011810;28;20432;-75
2022/09/18 03:59:33;;;;;;;6.13;1.40;;;9.10;99.90;;;;;;5027901;28;20707;-76
2022/09/18 04:02:02;;;;;;;1.20;0.90;;;9.10;99.90;;;;;;5012171;28;20981;-75
2022/09/18 04:04:28;;;;;;;2.20;0.90;;;9.20;99.90;;;;;;5031451;28;20197;-75
2022/09/18 04:06:54;;;;;;;5.47;1.33;;;9.20;99.90;;;;;;5032391;28;20859;-75
2022/09/18 04:09:28;;;;;;;4.60;1.20;;;9.20;99.90;;;;;;5031988;28;20444;-76
2022/09/18 04:11:54;;;;;;;4.20;1.70;;;9.20;99.90;;;;;;5030800;28;20227;-76
2022/09/18 04:14:21;;;;;;;4.80;1.27;;;9.40;99.90;;;;;;5032029;28;20439;-75
2022/09/18 04:16:48;;;;;;;5.07;1.60;;;9.20;99.90;;;;;;5030313;28;20424;-75
2022/09/18 04:19:13;;;;;;;5.00;1.70;;;9.20;99.90;;;;;;5031464;28;20422;-75
2022/09/18 04:21:39;;;;;;;8.60;2.07;;;9.20;99.90;;;;;;5031330;28;20462;-75
2022/09/18 04:24:05;;;;;;;4.03;1.57;;;9.10;99.90;;;;;;5031181;28;20724;-75
2022/09/18 04:26:33;;;;;;;6.93;1.30;;;9.20;99.90;;;;;;5029543;28;20416;-75
2022/09/18 04:28:59;;;;;;;2.80;1.53;;;9.20;99.90;;;;;;5029319;28;20482;-75
2022/09/18 04:31:24;;;;;;;4.53;1.67;;;9.20;99.90;;;;;;5030932;28;20492;-75
2022/09/18 04:33:50;;;;;;;4.23;1.40;;;9.20;99.90;;;;;;5031189;28;20617;-75
2022/09/18 04:36:15;;;;;;;1.23;1.07;;;9.20;99.90;;;;;;5031043;28;20769;-75
2022/09/18 04:38:41;;;;;;;7.30;1.17;;;9.20;99.90;;;;;;5030929;28;20187;-76
2022/09/18 04:41:07;;;;;;;2.80;1.17;;;9.20;99.90;;;;;;5029657;28;20681;-76
2022/09/18 04:43:33;;;;;;;4.50;1.37;;;9.20;99.90;;;;;;5030572;28;20284;-76
2022/09/18 04:45:58;;;;;;;2.90;1.30;;;9.20;99.90;;;;;;5030840;28;20461;-76
2022/09/18 04:48:24;;;;;;;2.80;1.40;;;9.10;99.90;;;;;;5012574;28;20712;-76
2022/09/18 04:50:49;;;;;;;6.03;1.10;;;9.20;99.90;;;;;;5030656;28;20209;-75
2022/09/18 04:53:15;;;;;;;6.70;1.47;;;9.20;99.90;;;;;;5030465;28;20254;-76
2022/09/18 04:55:43;;;;;;;2.70;1.17;;;9.20;99.90;;;;;;5030553;28;20227;-75
2022/09/18 04:58:09;;;;;;;7.73;0.97;;;9.20;99.90;;;;;;5030529;28;20925;-76
2022/09/18 05:00:37;;;;;;;3.77;1.27;;;9.20;99.90;;;;;;5030557;28;20528;-76
2022/09/18 05:03:05;;;;;;;3.13;1.40;;;9.20;99.90;;;;;;5030441;28;20815;-76
2022/09/18 05:05:31;;;;;;;1.43;0.90;;;9.20;99.90;;;;;;5030718;28;20803;-75
2022/09/18 05:07:58;;;;;;;3.40;0.90;;;9.20;99.90;;;;;;5030568;28;20434;-75
2022/09/18 05:10:24;;;;;;;2.67;1.77;;;9.20;99.90;;;;;;5030290;28;20465;-76
2022/09/18 05:12:50;;;;;;;1.87;1.23;;;9.20;99.90;;;;;;5029669;28;20824;-76
2022/09/18 05:15:16;;;;;;;4.00;1.40;;;9.20;99.90;;;;;;5028315;28;20421;-76
2022/09/18 05:17:42;;;;;;;1.30;1.00;;;9.20;99.90;;;;;;5028894;28;20201;-76
2022/09/18 05:20:08;;;;;;;1.40;1.00;;;9.20;99.90;;;;;;5012963;28;21163;-75
2022/09/18 05:22:34;;;;;;;3.80;1.20;;;9.20;99.90;;;;;;5030909;28;20304;-75
2022/09/18 05:25:00;;;;;;;1.90;1.10;;;9.20;99.90;;;;;;5030882;28;20502;-76
2022/09/18 05:27:25;;;;;;;1.10;0.90;;;9.30;99.90;;;;;;5029250;28;20642;-75
2022/09/18 05:29:51;;;;;;;4.40;1.10;;;9.20;99.90;;;;;;5030537;28;20180;-75
2022/09/18 05:32:19;;;;;;;2.40;0.90;;;9.20;99.90;;;;;;5030804;28;20209;-75
2022/09/18 05:34:45;;;;;;;3.70;1.50;;;9.20;99.90;;;;;;5030691;28;20177;-76
2022/09/18 05:37:12;;;;;;;2.33;1.10;;;9.20;99.90;;;;;;4996865;28;21010;-76
2022/09/18 05:39:37;;;;;;;2.27;1.20;;;9.20;99.90;;;;;;5029065;28;20433;-75
2022/09/18 05:42:04;;;;;;;4.57;1.43;;;9.30;99.90;;;;;;5030334;28;20449;-76
2022/09/18 05:44:29;;;;;;;3.23;1.30;;;9.30;99.90;;;;;;5030741;28;20169;-76
2022/09/18 05:46:55;;;;;;;4.40;1.13;;;9.20;99.90;;;;;;5030456;28;20428;-76
2022/09/18 05:49:20;;;;;;;3.67;1.33;;;9.20;99.90;;;;;;5028780;28;20650;-76
2022/09/18 05:51:46;;;;;;;5.40;1.00;;;9.20;99.90;;;;;;5030295;28;20387;-76
2022/09/18 05:54:11;;;;;;;1.80;1.20;;;9.20;99.90;;;;;;5029037;28;20180;-76
2022/09/18 05:56:40;;;;;;;2.53;1.27;;;9.30;99.90;;;;;;5028771;28;20682;-75
2022/09/18 05:59:06;;;;;;;1.80;0.97;;;9.40;99.90;;;;;;5030162;28;20185;-75
2022/09/18 06:01:31;;;;;;;2.80;1.30;;;9.30;99.90;;;;;;5028968;28;20421;-76
2022/09/18 06:03:58;;;;;;;2.47;1.13;;;9.40;99.90;;;;;;5028729;28;20225;-75
2022/09/18 06:06:27;;;;;;;3.20;1.00;;;9.50;99.90;;;;;;5030206;28;20218;-75
2022/09/18 06:08:53;;;;;;;5.13;1.33;;;9.30;99.90;;;;;;5030111;28;21310;-75
2022/09/18 06:11:18;;;;;;;2.33;1.50;;;9.40;99.90;;;;;;5029978;28;20499;-75
2022/09/18 06:13:47;;;;;;;0.90;0.73;;;9.40;99.90;;;;;;5029873;28;20308;-75
2022/09/18 06:16:14;;;;;;;4.50;1.50;;;9.20;99.90;;;;;;5029972;28;20197;-75
2022/09/18 06:18:42;;;;;;;4.20;1.37;;;9.30;99.90;;;;;;5029742;28;20448;-75
2022/09/18 06:21:08;;;;;;;4.07;1.33;;;9.30;99.90;;;;;;5028464;28;20448;-75
2022/09/18 06:23:33;;;;;;;8.53;2.00;;;9.40;99.90;;;;;;5029636;28;20475;-75
2022/09/18 06:26:06;;;;;;;8.10;1.43;;;9.40;99.90;;;;;;5027860;28;20192;-75
2022/09/18 06:28:33;;;;;;;4.80;1.27;;;9.40;99.90;;;;;;5028378;28;20196;-75
2022/09/18 06:31:00;;;;;;;4.80;1.70;;;9.50;99.90;;;;;;5029544;28;20825;-75
2022/09/18 06:33:28;;;;;;;5.93;1.43;;;9.60;99.90;;;;;;5029286;28;20444;-75
2022/09/18 06:35:54;;;;;;;1.70;1.00;;;9.50;99.90;;;;;;5029140;28;20426;-75
2022/09/18 06:38:19;;;;;;;4.60;1.40;;;9.50;99.90;;;;;;5011396;28;20956;-75
2022/09/18 06:40:49;;;;;;;7.10;1.20;;;9.50;99.90;;;;;;5027755;28;20482;-75
2022/09/18 06:43:15;;;;;;;17.60;1.67;;;9.50;99.90;;;;;;5027631;28;20207;-75
2022/09/18 06:45:41;;;;;;;6.90;1.50;;;9.60;99.90;;;;;;5028896;28;20426;-75
2022/09/18 06:48:07;;;;;;;4.13;1.13;;;9.50;99.90;;;;;;5028660;28;20421;-75
2022/09/18 06:50:32;;;;;;;2.43;1.10;;;9.50;99.90;;;;;;5028780;28;20297;-75
2022/09/18 06:53:05;;;;;;;3.80;1.40;;;9.50;99.90;;;;;;5028768;28;20756;-75
2022/09/18 06:55:31;;;;;;;5.30;1.60;;;9.50;99.90;;;;;;5029063;28;20174;-75
2022/09/18 06:57:58;;;;;;;5.00;1.50;;;9.40;99.90;;;;;;5028550;28;20944;-75
2022/09/18 07:00:25;;;;;;;3.80;1.50;;;9.50;99.90;;;;;;5028551;28;20184;-75
2022/09/18 07:02:59;;;;;;;2.57;1.33;;;9.50;99.90;;;;;;5028581;28;20980;-75
2022/09/18 07:05:30;;;;;;;6.60;1.80;;;9.60;99.90;;;;;;5027322;28;20416;-75
2022/09/18 07:07:55;;;;;;;5.17;1.60;;;9.60;99.90;;;;;;5028554;28;20521;-75
2022/09/18 07:10:22;;;;;;;4.50;2.57;;;9.60;99.90;;;;;;5027079;28;20561;-75
2022/09/18 07:12:47;;;;;;;2.63;1.63;;;9.70;99.90;;;;;;5026939;28;20217;-75
2022/09/18 07:15:17;;;;;;;4.00;1.10;;;9.80;99.90;;;;;;5028592;28;20876;-75
2022/09/18 07:17:44;;;;;;;4.30;2.00;;;9.80;99.90;;;;;;5028325;28;20183;-75
2022/09/18 07:20:13;;;;;;;7.30;2.47;;;10.00;99.90;;;;;;5028365;28;20425;-75
2022/09/18 07:22:40;;;;;;;20.33;14.37;;;10.10;99.90;;;;;;5028507;28;20538;-75
2022/09/18 07:25:07;;;;;;;5.63;1.87;;;10.20;99.90;;;;;;5028893;28;20418;-75
2022/09/18 07:27:33;;;;;;;3.77;1.13;;;10.20;99.90;;;;;;5039810;28;20503;-75
2022/09/18 07:29:59;;;;;;;5.00;1.80;;;10.20;99.90;;;;;;5031091;28;20429;-75
2022/09/18 07:32:25;;;;;;;6.57;1.93;;;10.10;99.90;;;;;;5029123;28;20547;-75
2022/09/18 07:34:51;;;;;;;35.30;15.83;;;10.30;99.90;;;;;;5028594;28;20420;-75
2022/09/18 07:37:17;;;;;;;8.77;7.30;;;10.30;99.90;;;;;;5029672;28;20948;-75
2022/09/18 07:39:43;;;;;;;12.73;3.10;;;10.40;99.90;;;;;;5031995;28;20659;-75
2022/09/18 07:42:10;;;;;;;3.03;1.53;;;10.40;99.90;;;;;;5031935;28;20208;-75
2022/09/18 07:44:36;;;;;;;7.17;2.50;;;10.40;99.90;;;;;;5030313;28;21007;-74
2022/09/18 07:47:02;;;;;;;4.90;1.67;;;10.40;99.90;;;;;;5013984;28;20436;-74
2022/09/18 07:49:27;;;;;;;6.17;3.47;;;10.50;99.90;;;;;;5030161;28;20424;-74
2022/09/18 07:51:53;;;;;;;7.97;1.67;;;10.60;99.90;;;;;;5029987;28;20727;-74
2022/09/18 07:54:22;;;;;;;2.17;1.10;;;10.70;99.90;;;;;;5031867;28;20533;-74
2022/09/18 07:56:47;;;;;;;1.93;1.40;;;10.60;99.90;;;;;;5031741;28;20182;-74
2022/09/18 07:59:13;;;;;;;3.63;1.00;;;10.70;99.90;;;;;;5031577;28;20916;-74
2022/09/18 08:01:38;;;;;;;9.93;1.83;;;10.60;99.90;;;;;;5031786;28;20735;-74
2022/09/18 08:04:05;;;;;;;4.77;1.30;;;10.70;99.90;;;;;;5029930;28;20218;-74
2022/09/18 08:06:31;;;;;;;1.07;0.70;;;10.60;99.90;;;;;;5031480;28;20538;-74
2022/09/18 08:08:56;;;;;;;4.50;0.80;;;10.70;99.90;;;;;;5029866;28;20862;-74
2022/09/18 08:11:22;;;;;;;3.77;1.40;;;10.60;99.90;;;;;;5031339;28;20852;-74
2022/09/18 08:13:48;;;;;;;1.60;1.33;;;10.60;99.90;;;;;;5031550;28;20213;-74
2022/09/18 08:16:17;;;;;;;5.77;3.50;;;10.60;99.90;;;;;;5031615;28;20187;-74
2022/09/18 08:18:43;;;;;;;1.63;1.30;;;10.70;99.90;;;;;;5031054;28;20186;-74
2022/09/18 08:21:09;;;;;;;4.57;1.40;;;10.70;99.90;;;;;;5029856;28;20551;-74
2022/09/18 08:23:35;;;;;;;3.33;1.30;;;10.60;99.90;;;;;;5031123;28;20241;-74
2022/09/18 08:26:02;;;;;;;1.73;0.90;;;10.70;99.90;;;;;;5030997;28;20429;-74
2022/09/18 08:28:28;;;;;;;2.33;0.90;;;10.80;99.90;;;;;;5030956;28;21177;-75
2022/09/18 08:30:55;;;;;;;2.03;0.80;;;10.80;99.90;;;;;;5029614;28;20470;-74
2022/09/18 08:33:20;;;;;;;4.80;1.23;;;10.80;99.90;;;;;;5031016;28;20670;-75
2022/09/18 08:35:46;;;;;;;4.63;1.00;;;10.90;99.90;;;;;;5029629;28;20417;-74
2022/09/18 08:38:12;;;;;;;2.07;1.30;;;10.90;99.90;;;;;;5029665;28;20272;-74
2022/09/18 08:40:55;;;;;;;3.03;0.93;;;10.90;99.90;;;;;;5012974;28;20191;-75
2022/09/18 08:43:33;;;;;;;1.70;0.90;;;11.00;99.90;;;;;;5030887;28;20204;-74
2022/09/18 08:46:05;;;;;;;2.70;0.70;;;10.90;99.90;;;;;;5030895;28;20783;-74
2022/09/18 08:48:38;;;;;;;3.97;0.90;;;10.90;99.90;;;;;;5030408;28;20415;-74
2022/09/18 08:51:21;;;;;;;4.87;1.43;;;11.10;99.90;;;;;;5030662;28;20473;-74
2022/09/18 08:53:53;;;;;;;3.17;0.80;;;11.10;99.90;;;;;;5030710;28;20445;-74
2022/09/18 08:56:23;;;;;;;1.63;0.70;;;11.20;99.90;;;;;;5030623;28;20418;-75
2022/09/18 08:59:02;;;;;;;1.67;0.97;;;11.10;99.90;;;;;;5030517;28;20436;-74
2022/09/18 09:01:59;;;;;;;2.00;0.70;;;11.20;99.90;;;;;;5029085;28;20421;-74
2022/09/18 09:04:28;;;;;;;1.20;0.80;;;11.30;99.90;;;;;;5030632;28;21215;-74
2022/09/18 09:07:23;;;;;;;1.40;0.60;;;11.30;99.90;;;;;;5030469;28;20415;-74
2022/09/18 09:10:07;;;;;;;2.70;0.87;;;11.30;99.90;;;;;;5030400;28;20444;-75
2022/09/18 09:12:45;;;;;;;3.70;0.77;;;11.40;99.90;;;;;;5030381;28;20474;-74
2022/09/18 09:15:26;;;;;;;5.13;1.13;;;11.40;99.90;;;;;;5030709;28;20416;-74
2022/09/18 09:18:08;;;;;;;7.03;3.47;;;11.40;99.90;;;;;;5031432;28;20459;-74
2022/09/18 09:20:54;;;;;;;5.33;1.90;;;11.40;99.90;;;;;;5030033;28;20436;-74
2022/09/18 09:23:33;;;;;;;3.23;1.10;;;11.30;99.90;;;;;;5030930;28;21011;-74
2022/09/18 09:26:13;;;;;;;3.30;1.80;;;11.40;99.90;;;;;;5029867;28;20432;-74
2022/09/18 09:28:45;;;;;;;4.47;1.97;;;11.40;99.90;;;;;;5029470;28;20454;-74
2022/09/18 09:31:14;;;;;;;1.03;0.93;;;11.40;99.90;;;;;;5030757;28;20988;-74
2022/09/18 09:33:51;;;;;;;1.27;0.60;;;11.40;99.90;;;;;;5034958;28;20430;-74
2022/09/18 09:36:23;;;;;;;5.30;1.33;;;11.50;99.90;;;;;;5055203;28;20436;-74
2022/09/18 09:38:51;;;;;;;1.70;0.90;;;11.50;99.90;;;;;;5033077;28;20515;-75
2022/09/18 09:41:34;;;;;;;1.73;1.10;;;11.50;99.90;;;;;;5030618;28;20417;-75
2022/09/18 09:44:19;;;;;;;2.90;0.90;;;11.50;99.90;;;;;;5030741;28;20415;-75
2022/09/18 09:46:51;;;;;;;5.50;1.20;;;11.50;99.90;;;;;;5030580;28;20417;-74
2022/09/18 09:49:23;;;;;;;1.90;0.70;;;11.40;99.90;;;;;;5032014;28;20613;-74
2022/09/18 09:52:26;;;;;;;1.57;0.80;;;11.40;99.90;;;;;;5029802;28;20845;-74
2022/09/18 09:55:14;;;;;;;5.33;1.20;;;11.50;99.90;;;;;;5029587;28;20421;-75
2022/09/18 09:57:44;;;;;;;3.67;1.00;;;11.50;99.90;;;;;;5028244;28;20441;-75
2022/09/18 10:00:16;;;;;;;6.13;1.13;;;11.60;99.90;;;;;;5028938;28;20909;-74
2022/09/18 10:03:10;;;;;;;4.47;2.60;;;11.70;99.90;;;;;;5029368;28;20458;-74
2022/09/18 10:06:09;;;;;;;7.87;1.63;;;11.60;99.90;;;;;;5027809;28;20503;-74
2022/09/18 10:08:42;;;;;;;3.73;0.90;;;11.70;99.90;;;;;;5029200;28;20407;-74
2022/09/18 10:11:10;;;;;;;2.00;0.90;;;11.70;99.90;;;;;;5029380;28;20981;-74
2022/09/18 10:13:48;;;;;;;10.37;1.20;;;11.90;99.90;;;;;;5029180;28;20468;-74
2022/09/18 10:16:24;;;;;;;4.87;1.10;;;12.20;99.90;;;;;;5029146;28;20425;-74
2022/09/18 10:18:53;;;;;;;17.83;14.50;;;12.40;99.90;;;;;;5029170;28;20530;-74
2022/09/18 10:21:25;;;;;;;11.30;3.43;;;12.60;99.90;;;;;;5027629;28;20936;-74
2022/09/18 10:24:05;;;;;;;6.20;1.00;;;12.60;99.90;;;;;;5028897;28;20443;-74
2022/09/18 10:26:38;;;;;;;4.10;1.00;;;12.60;99.90;;;;;;5027491;28;20435;-74
2022/09/18 10:29:04;;;;;;;4.97;1.20;;;12.70;99.90;;;;;;5027556;28;20511;-74
2022/09/18 10:31:45;;;;;;;9.10;1.40;;;12.70;99.90;;;;;;5028854;28;20972;-74
2022/09/18 10:34:29;;;;;;;2.40;0.90;;;12.80;99.90;;;;;;5029019;28;20467;-74
2022/09/18 10:36:55;;;;;;;6.00;1.30;;;12.90;99.90;;;;;;5028937;28;20418;-74
2022/09/18 10:39:28;;;;;;;5.50;1.23;;;12.80;99.90;;;;;;5027101;28;20427;-74
2022/09/18 10:42:01;;;;;;;5.50;1.40;;;12.80;99.90;;;;;;5028776;28;20184;-74
2022/09/18 10:44:29;;;;;;;2.20;1.00;;;12.80;99.90;;;;;;5028927;28;20485;-74
2022/09/18 10:47:11;;;;;;;5.13;1.20;;;12.80;99.90;;;;;;5028716;28;20481;-74
2022/09/18 10:49:48;;;;;;;3.80;0.80;;;12.80;99.90;;;;;;5028945;28;20553;-74
2022/09/18 10:52:31;;;;;;;2.40;1.27;;;12.80;99.90;;;;;;5028725;28;20501;-74
2022/09/18 10:54:58;;;;;;;6.37;1.13;;;13.10;99.90;;;;;;5028634;28;20410;-74
2022/09/18 10:57:33;;;;;;;4.40;1.13;;;13.10;99.90;;;;;;5028527;28;20423;-74
2022/09/18 10:59:59;;;;;;;6.87;1.43;;;13.10;99.90;;;;;;5028740;28;20418;-74
2022/09/18 11:02:28;;;;;;;3.63;1.27;;;13.20;99.90;;;;;;5028707;28;20454;-74
2022/09/18 11:04:54;;;;;;;3.10;0.90;;;13.30;99.90;;;;;;5027408;28;20564;-74
2022/09/18 11:07:23;;;;;;;5.80;1.20;;;13.50;99.90;;;;;;5028555;28;20431;-74
2022/09/18 11:09:49;;;;;;;3.10;1.00;;;13.50;99.90;;;;;;5028528;28;20431;-74
2022/09/18 11:12:28;;;;;;;3.00;0.83;;;13.60;99.90;;;;;;5031425;28;20489;-74
2022/09/18 11:15:04;;;;;;;3.53;0.83;;;13.40;99.90;;;;;;5032574;28;20427;-74
2022/09/18 11:17:32;;;;;;;2.40;0.80;;;13.60;99.90;;;;;;5032604;28;20503;-74
2022/09/18 11:20:00;;;;;;;3.00;0.80;;;13.80;99.90;;;;;;5032600;28;20419;-74
2022/09/18 11:22:42;;;;;;;5.13;1.20;;;14.10;99.90;;;;;;5032640;28;20500;-74
2022/09/18 11:25:17;;;;;;;4.60;1.07;;;13.90;99.90;;;;;;5032668;28;20851;-74
2022/09/18 11:27:58;;;;;;;2.93;0.80;;;14.00;99.90;;;;;;5032855;28;20876;-75
2022/09/18 11:30:28;;;;;;;1.60;0.60;;;14.00;99.90;;;;;;5032893;28;20464;-74
2022/09/18 11:33:03;;;;;;;2.10;0.60;;;14.10;99.90;;;;;;5033018;28;20455;-74
2022/09/18 11:35:30;;;;;;;6.03;0.90;;;14.00;99.90;;;;;;5033015;28;20423;-74
2022/09/18 11:38:06;;;;;;;16.37;8.93;;;14.40;99.90;;;;;;5033009;28;20427;-74
2022/09/18 11:40:47;;;;;;;5.23;2.73;;;14.70;99.90;;;;;;5032971;28;20433;-74
2022/09/18 11:43:21;;;;;;;7.53;3.33;;;14.80;99.90;;;;;;5031383;28;20455;-74
2022/09/18 11:45:55;;;;;;;3.27;1.37;;;14.80;99.90;;;;;;5032853;28;20434;-74
2022/09/18 11:48:31;;;;;;;3.40;2.03;;;15.00;99.90;;;;;;5032958;28;20416;-74
2022/09/18 11:51:01;;;;;;;16.30;11.63;;;15.10;99.90;;;;;;5032599;28;20462;-74
2022/09/18 11:53:32;;;;;;;104.00;53.80;;;15.20;99.90;;;;;;5032208;28;20443;-75
2022/09/18 11:56:07;;;;;;;57.80;31.00;;;15.10;99.90;;;;;;5014806;28;20435;-74
2022/09/18 11:58:52;;;;;;;9.77;5.37;;;15.30;99.90;;;;;;5032161;28;20888;-74
2022/09/18 12:01:43;;;;;;;36.23;22.23;;;15.20;99.90;;;;;;5032109;28;21039;-74
2022/09/18 12:05:01;;;;;;;4.60;2.90;;;15.10;99.90;;;;;;5031963;28;20423;-74
2022/09/18 12:07:34;;;;;;;4.83;1.20;;;15.40;99.90;;;;;;4989489;28;20444;-74
2022/09/18 12:10:11;;;;;;;5.90;0.70;;;15.40;99.90;;;;;;4989953;28;20429;-74
2022/09/18 12:12:43;;;;;;;2.20;0.80;;;15.20;99.90;;;;;;5016171;28;20494;-74
2022/09/18 12:15:20;;;;;;;4.07;1.90;;;15.20;99.90;;;;;;5031729;28;20425;-74
2022/09/18 12:18:00;;;;;;;24.70;15.00;;;14.90;99.90;;;;;;5031459;28;20457;-74
2022/09/18 12:20:31;;;;;;;19.67;14.20;;;14.70;99.90;;;;;;5031384;28;20415;-74
2022/09/18 12:22:59;;;;;;;17.13;12.90;;;14.70;99.90;;;;;;5030641;28;20617;-74
2022/09/18 12:26:03;;;;;;;5.33;1.60;;;14.70;99.90;;;;;;5029725;28;20442;-74
2022/09/18 12:28:37;;;;;;;4.47;3.87;;;14.60;99.90;;;;;;5031165;28;20529;-74
2022/09/18 12:31:12;;;;;;;11.30;2.20;;;14.80;99.90;;;;;;5031031;28;20513;-74
2022/09/18 12:34:13;;;;;;;4.90;1.30;;;14.80;99.90;;;;;;5029813;28;20819;-74
2022/09/18 12:37:03;;;;;;;3.10;1.00;;;14.80;99.90;;;;;;5011256;28;20943;-74
2022/09/18 12:40:10;;;;;;;2.30;0.90;;;14.80;99.90;;;;;;5030956;28;20963;-74
2022/09/18 12:43:08;;;;;;;6.97;1.17;;;14.60;99.90;;;;;;5030880;28;20434;-74
2022/09/18 12:45:52;;;;;;;8.07;2.60;;;14.00;99.90;;;;;;5030914;28;20474;-74
2022/09/18 12:48:45;;;;;;;2.87;1.20;;;14.20;99.90;;;;;;5030865;28;20415;-74
2022/09/18 12:51:31;;;;;;;6.63;1.70;;;14.30;99.90;;;;;;5030940;28;20494;-76
2022/09/18 12:54:09;;;;;;;6.50;2.20;;;14.40;99.90;;;;;;5030644;28;20439;-75
2022/09/18 12:57:13;;;;;;;13.23;4.00;;;14.40;99.90;;;;;;5030709;28;20760;-74
2022/09/18 13:00:02;;;;;;;18.00;16.37;;;14.30;99.90;;;;;;5030589;28;20436;-74
2022/09/18 13:02:51;;;;;;;8.40;6.70;;;14.50;99.90;;;;;;5030503;28;20434;-74
2022/09/18 13:05:33;;;;;;;9.23;1.50;;;14.60;99.90;;;;;;5030348;28;20519;-74
2022/09/18 13:08:10;;;;;;;3.60;1.47;;;14.50;99.90;;;;;;5030280;28;21342;-75
2022/09/18 13:10:42;;;;;;;3.53;1.57;;;14.60;99.90;;;;;;5030643;28;20936;-74
2022/09/18 13:13:36;;;;;;;4.90;1.47;;;14.50;99.90;;;;;;5030115;28;20852;-74
2022/09/18 13:16:24;;;;;;;3.87;1.23;;;14.30;99.90;;;;;;5030426;28;20447;-75
2022/09/18 13:18:56;;;;;;;5.57;1.40;;;14.30;99.90;;;;;;5029972;28;20435;-74